createdAt,value
2023-01-31T00:01:33.916Z,5.19
2023-01-31T00:04:07.669Z,4.91
2023-01-31T00:06:51.220Z,5.02
2023-01-31T00:09:18.871Z,4.88
2023-01-31T00:11:45.813Z,4.63
2023-01-31T00:14:19.422Z,4.74
2023-01-31T00:16:46.464Z,4.88
2023-01-31T00:19:13.521Z,4.57
2023-01-31T00:21:43.801Z,4.88
2023-01-31T00:24:13.127Z,4.99
2023-01-31T00:26:40.108Z,4.85
2023-01-31T00:29:07.184Z,4.90
2023-01-31T00:31:35.632Z,4.77
2023-01-31T00:34:03.646Z,4.85
2023-01-31T00:36:33.319Z,4.85
2023-01-31T00:39:02.793Z,4.86
2023-01-31T00:41:31.068Z,4.76
2023-01-31T00:43:58.661Z,4.68
2023-01-31T00:46:25.677Z,4.59
2023-01-31T00:48:53.561Z,4.28
2023-01-31T00:51:20.496Z,4.57
2023-01-31T00:53:48.290Z,4.76
2023-01-31T00:56:18.821Z,4.68
2023-01-31T00:58:46.528Z,4.67
2023-01-31T01:01:18.411Z,4.62
2023-01-31T01:03:46.858Z,4.61
2023-01-31T01:06:14.859Z,4.81
2023-01-31T01:08:43.754Z,4.60
2023-01-31T01:11:14.532Z,4.76
2023-01-31T01:13:42.295Z,4.58
2023-01-31T01:16:15.519Z,4.84
2023-01-31T01:18:44.888Z,4.93
2023-01-31T01:21:15.536Z,4.82
2023-01-31T01:23:43.144Z,4.76
2023-01-31T01:26:17.048Z,4.97
2023-01-31T01:28:44.399Z,4.41
2023-01-31T01:31:13.613Z,4.61
2023-01-31T01:33:41.022Z,4.83
2023-01-31T01:36:17.464Z,4.84
2023-01-31T01:38:46.060Z,4.95
2023-01-31T01:41:14.612Z,4.85
2023-01-31T01:43:47.774Z,4.85
2023-01-31T01:46:32.916Z,4.66
2023-01-31T01:49:05.393Z,4.50
2023-01-31T01:51:34.609Z,4.66
2023-01-31T01:54:08.598Z,4.65
2023-01-31T01:56:41.935Z,4.44
2023-01-31T01:59:31.504Z,4.47
2023-01-31T02:01:58.429Z,4.59
2023-01-31T02:04:33.068Z,4.69
2023-01-31T02:07:00.466Z,4.66
2023-01-31T02:09:42.424Z,4.50
2023-01-31T02:12:10.463Z,4.73
2023-01-31T02:14:40.971Z,4.78
2023-01-31T02:17:16.103Z,4.53
2023-01-31T02:20:20.939Z,4.25
2023-01-31T02:23:05.846Z,4.10
2023-01-31T02:25:53.982Z,4.14
2023-01-31T02:28:26.691Z,4.13
2023-01-31T02:31:22.972Z,3.95
2023-01-31T02:34:09.719Z,3.88
2023-01-31T02:37:09.310Z,3.83
2023-01-31T02:39:57.040Z,3.72
2023-01-31T02:42:51.134Z,3.91
2023-01-31T02:45:38.167Z,3.63
2023-01-31T02:48:26.823Z,3.68
2023-01-31T02:50:56.503Z,3.71
2023-01-31T02:53:23.075Z,3.68
2023-01-31T02:56:15.009Z,3.56
2023-01-31T02:58:48.312Z,3.62
2023-01-31T03:01:24.120Z,3.71
2023-01-31T03:03:52.968Z,3.67
2023-01-31T03:06:25.441Z,3.58
2023-01-31T03:09:10.121Z,3.57
2023-01-31T03:12:07.334Z,3.24
2023-01-31T03:14:50.605Z,3.30
2023-01-31T03:17:33.286Z,3.43
2023-01-31T03:20:24.614Z,3.38
2023-01-31T03:22:57.467Z,3.25
2023-01-31T03:25:27.738Z,3.41
2023-01-31T03:28:06.375Z,3.42
2023-01-31T03:30:42.598Z,3.57
2023-01-31T03:33:16.930Z,3.20
2023-01-31T03:35:51.641Z,3.44
2023-01-31T03:38:25.451Z,3.49
2023-01-31T03:40:58.638Z,3.40
2023-01-31T03:43:32.492Z,3.47
2023-01-31T03:46:16.923Z,3.43
2023-01-31T03:48:48.692Z,3.32
2023-01-31T03:51:22.971Z,3.33
2023-01-31T03:53:58.315Z,3.16
2023-01-31T03:57:14.433Z,3.37
2023-01-31T03:59:45.589Z,3.37
2023-01-31T04:02:16.284Z,3.32
2023-01-31T04:04:50.751Z,3.54
2023-01-31T04:07:18.105Z,3.58
2023-01-31T04:09:46.446Z,3.51
2023-01-31T04:12:15.030Z,3.62
2023-01-31T04:14:43.027Z,3.88
2023-01-31T04:17:09.664Z,3.71
2023-01-31T04:19:36.714Z,3.82
2023-01-31T04:22:03.431Z,3.73
2023-01-31T04:24:30.115Z,3.86
2023-01-31T04:26:56.754Z,3.88
2023-01-31T04:29:23.366Z,4.08
2023-01-31T04:31:50.156Z,3.89
2023-01-31T04:34:16.977Z,3.87
2023-01-31T04:36:43.517Z,3.84
2023-01-31T04:39:11.192Z,3.93
2023-01-31T04:41:38.553Z,4.15
2023-01-31T04:44:05.346Z,4.10
2023-01-31T04:46:32.114Z,3.83
2023-01-31T04:48:58.872Z,4.06
2023-01-31T04:51:25.462Z,4.07
2023-01-31T04:53:52.066Z,3.97
2023-01-31T04:56:18.649Z,3.97
2023-01-31T04:58:45.851Z,4.03
2023-01-31T05:01:12.488Z,4.24
2023-01-31T05:03:39.040Z,4.27
2023-01-31T05:06:06.049Z,4.21
2023-01-31T05:08:32.839Z,4.33
2023-01-31T05:11:02.996Z,4.35
2023-01-31T05:13:32.796Z,4.43
2023-01-31T05:15:59.813Z,4.42
2023-01-31T05:18:26.750Z,4.47
2023-01-31T05:20:53.275Z,4.47
2023-01-31T05:23:19.968Z,4.48
2023-01-31T05:25:50.216Z,4.53
2023-01-31T05:28:17.236Z,4.54
2023-01-31T05:30:44.017Z,4.35
2023-01-31T05:33:11.090Z,4.41
2023-01-31T05:35:39.459Z,4.69
2023-01-31T05:38:06.104Z,4.68
2023-01-31T05:40:32.683Z,4.50
2023-01-31T05:43:01.647Z,4.65
2023-01-31T05:45:29.139Z,4.68
2023-01-31T05:47:55.849Z,4.52
2023-01-31T05:50:22.814Z,4.53
2023-01-31T05:52:54.664Z,4.69
2023-01-31T05:55:22.094Z,4.59
2023-01-31T05:57:49.127Z,4.81
2023-01-31T06:00:16.906Z,4.74
2023-01-31T06:02:43.861Z,4.71
2023-01-31T06:05:14.132Z,4.78
2023-01-31T06:07:41.183Z,4.98
2023-01-31T06:10:12.154Z,4.61
2023-01-31T06:12:38.774Z,4.86
2023-01-31T06:15:05.950Z,4.77
2023-01-31T06:17:33.004Z,5.01
2023-01-31T06:20:00.237Z,4.86
2023-01-31T06:22:26.956Z,4.87
2023-01-31T06:24:53.572Z,4.84
2023-01-31T06:27:20.760Z,4.82
2023-01-31T06:29:48.585Z,4.96
2023-01-31T06:32:15.178Z,5.04
2023-01-31T06:34:41.805Z,4.94
2023-01-31T06:37:10.255Z,5.00
2023-01-31T06:39:36.906Z,5.12
2023-01-31T06:42:04.116Z,4.97
2023-01-31T06:44:33.127Z,4.77
2023-01-31T06:47:02.587Z,4.86
2023-01-31T06:49:29.304Z,4.75
2023-01-31T06:51:55.856Z,4.68
2023-01-31T06:54:22.494Z,4.76
2023-01-31T06:56:49.147Z,4.68
2023-01-31T06:59:15.840Z,4.98
2023-01-31T07:01:42.510Z,4.96
2023-01-31T07:04:09.187Z,4.75
2023-01-31T07:06:35.848Z,4.84
2023-01-31T07:09:02.558Z,5.06
2023-01-31T07:11:29.171Z,4.90
2023-01-31T07:13:55.831Z,5.01
2023-01-31T07:16:23.878Z,4.98
2023-01-31T07:18:53.310Z,4.96
2023-01-31T07:21:20.415Z,4.95
2023-01-31T07:23:47.177Z,4.98
2023-01-31T07:26:14.003Z,5.08
2023-01-31T07:28:40.755Z,5.12
2023-01-31T07:31:11.009Z,4.86
2023-01-31T07:33:38.670Z,5.08
2023-01-31T07:36:07.778Z,4.77
2023-01-31T07:38:35.003Z,4.97
2023-01-31T07:41:03.973Z,4.95
2023-01-31T07:43:32.123Z,4.79
2023-01-31T07:45:59.075Z,5.02
2023-01-31T07:48:25.834Z,5.03
2023-01-31T07:51:02.556Z,5.03
2023-01-31T07:53:31.800Z,5.03
2023-01-31T07:56:16.185Z,5.08
2023-01-31T07:58:44.606Z,5.06
2023-01-31T08:01:36.695Z,4.87
2023-01-31T08:04:19.403Z,5.08
2023-01-31T08:06:48.346Z,5.02
2023-01-31T08:09:15.132Z,5.21
2023-01-31T08:11:41.731Z,5.25
2023-01-31T08:14:09.556Z,5.08
2023-01-31T08:16:36.935Z,5.01
2023-01-31T08:19:04.234Z,5.14
2023-01-31T08:21:30.835Z,5.18
2023-01-31T08:23:57.410Z,5.23
2023-01-31T08:26:24.123Z,5.41
2023-01-31T08:28:56.161Z,5.22
2023-01-31T08:31:27.487Z,5.22
2023-01-31T08:33:55.779Z,5.22
2023-01-31T08:36:32.048Z,5.29
2023-01-31T08:38:59.353Z,5.32
2023-01-31T08:41:27.560Z,5.27
2023-01-31T08:43:58.030Z,5.32
2023-01-31T08:46:31.004Z,5.34
2023-01-31T08:48:58.621Z,5.13
2023-01-31T08:51:25.375Z,5.11
2023-01-31T08:53:52.057Z,5.24
2023-01-31T08:56:21.352Z,5.08
2023-01-31T08:58:48.198Z,4.99
2023-01-31T09:01:18.270Z,5.13
2023-01-31T09:03:46.518Z,4.97
2023-01-31T09:06:21.542Z,5.05
2023-01-31T09:08:48.247Z,5.06
2023-01-31T09:11:19.644Z,5.00
2023-01-31T09:13:51.363Z,4.92
2023-01-31T09:16:19.752Z,4.97
2023-01-31T09:18:46.773Z,4.99
2023-01-31T09:21:18.367Z,5.06
2023-01-31T09:23:45.728Z,5.17
2023-01-31T09:26:13.341Z,5.22
2023-01-31T09:28:42.983Z,5.16
2023-01-31T09:31:10.885Z,5.17
2023-01-31T09:33:37.614Z,5.15
2023-01-31T09:36:07.700Z,5.33
2023-01-31T09:38:35.218Z,5.22
2023-01-31T09:41:05.647Z,5.22
2023-01-31T09:43:44.524Z,5.27
2023-01-31T09:46:16.478Z,5.34
2023-01-31T09:48:47.499Z,5.52
2023-01-31T09:51:16.540Z,5.20
2023-01-31T09:53:44.181Z,5.20
2023-01-31T09:56:22.981Z,5.26
2023-01-31T09:59:19.300Z,5.07
2023-01-31T10:02:04.333Z,5.04
2023-01-31T10:04:59.692Z,5.25
2023-01-31T10:07:36.556Z,5.21
2023-01-31T10:10:09.094Z,5.16
2023-01-31T10:12:55.447Z,5.19
2023-01-31T10:15:41.471Z,5.26
2023-01-31T10:18:18.054Z,5.23
2023-01-31T10:20:52.260Z,5.27
2023-01-31T10:23:25.559Z,5.21
2023-01-31T10:26:07.209Z,5.19
2023-01-31T10:28:47.920Z,5.36
2023-01-31T10:31:14.478Z,5.31
2023-01-31T10:33:47.000Z,5.36
2023-01-31T10:36:27.928Z,5.40
2023-01-31T10:39:01.713Z,5.55
2023-01-31T10:41:41.470Z,5.61
2023-01-31T10:44:19.875Z,5.58
2023-01-31T10:46:48.722Z,5.55
2023-01-31T10:49:15.490Z,5.63
2023-01-31T10:51:48.693Z,5.61
2023-01-31T10:54:29.418Z,5.58
2023-01-31T10:56:58.019Z,5.86
2023-01-31T10:59:31.050Z,5.87
2023-01-31T11:01:58.711Z,5.91
2023-01-31T11:04:33.288Z,5.86
2023-01-31T11:07:01.592Z,5.98
2023-01-31T11:09:34.101Z,5.68
2023-01-31T11:12:02.979Z,5.80
2023-01-31T11:14:31.458Z,5.74
2023-01-31T11:17:21.310Z,5.70
2023-01-31T11:19:53.877Z,5.49
2023-01-31T11:22:22.991Z,5.56
2023-01-31T11:24:50.782Z,5.80
2023-01-31T11:27:31.742Z,5.93
2023-01-31T11:30:00.489Z,5.85
2023-01-31T11:32:31.915Z,5.81
2023-01-31T11:35:22.353Z,5.85
2023-01-31T11:37:54.308Z,5.93
2023-01-31T11:40:30.487Z,5.83
2023-01-31T11:43:06.620Z,5.75
2023-01-31T11:45:44.175Z,5.63
2023-01-31T11:48:13.898Z,5.75
2023-01-31T11:50:44.569Z,5.49
2023-01-31T11:53:24.289Z,5.76
2023-01-31T11:55:54.344Z,5.52
2023-01-31T11:58:37.895Z,5.51
2023-01-31T12:01:13.023Z,5.60
2023-01-31T12:04:01.185Z,5.65
2023-01-31T12:06:34.046Z,5.55
2023-01-31T12:09:02.995Z,5.72
2023-01-31T12:11:36.012Z,5.56
2023-01-31T12:14:16.145Z,5.58
2023-01-31T12:16:44.432Z,5.66
2023-01-31T12:19:14.125Z,5.65
2023-01-31T12:21:59.526Z,5.67
2023-01-31T12:24:26.006Z,5.76
2023-01-31T12:26:56.993Z,5.80
2023-01-31T12:29:35.165Z,5.82
2023-01-31T12:32:04.674Z,5.84
2023-01-31T12:35:08.196Z,6.08
2023-01-31T12:37:59.273Z,6.01
2023-01-31T12:40:42.557Z,5.68
2023-01-31T12:43:46.567Z,5.78
2023-01-31T12:46:16.156Z,5.54
2023-01-31T12:48:42.682Z,5.74
2023-01-31T12:51:41.762Z,5.76
2023-01-31T12:54:15.404Z,5.80
2023-01-31T12:56:45.271Z,5.82
2023-01-31T12:59:49.690Z,5.73
2023-01-31T13:02:38.210Z,5.97
2023-01-31T13:05:16.217Z,5.67
2023-01-31T13:07:51.920Z,5.80
2023-01-31T13:10:41.449Z,5.81
2023-01-31T13:13:13.735Z,5.70
2023-01-31T13:15:44.375Z,5.68
2023-01-31T13:18:12.653Z,5.85
2023-01-31T13:20:44.412Z,5.95
2023-01-31T13:23:21.888Z,5.97
2023-01-31T13:25:56.514Z,5.89
2023-01-31T13:28:29.839Z,5.91
2023-01-31T13:31:05.559Z,5.88
2023-01-31T13:33:40.169Z,5.72
2023-01-31T13:36:30.130Z,5.87
2023-01-31T13:39:00.995Z,5.91
2023-01-31T13:41:31.055Z,5.89
2023-01-31T13:43:58.785Z,6.00
2023-01-31T13:46:38.746Z,5.87
2023-01-31T13:49:09.729Z,5.89
2023-01-31T13:51:49.287Z,5.95
2023-01-31T13:54:18.820Z,6.00
2023-01-31T13:56:52.572Z,5.89
2023-01-31T13:59:27.131Z,5.89
2023-01-31T14:01:56.355Z,6.03
2023-01-31T14:04:27.323Z,6.03
2023-01-31T14:06:54.767Z,6.17
2023-01-31T14:09:30.572Z,6.20
2023-01-31T14:11:59.852Z,6.06
2023-01-31T14:14:39.837Z,6.11
2023-01-31T14:17:12.991Z,6.26
2023-01-31T14:19:42.640Z,6.29
2023-01-31T14:22:33.250Z,6.33
2023-01-31T14:25:04.998Z,6.24
2023-01-31T14:27:37.650Z,6.19
2023-01-31T14:30:04.803Z,6.29
2023-01-31T14:32:31.393Z,6.27
2023-01-31T14:35:02.464Z,6.25
2023-01-31T14:37:47.499Z,6.24
2023-01-31T14:40:31.287Z,6.28
2023-01-31T14:43:35.712Z,6.32
2023-01-31T14:46:35.587Z,6.18
2023-01-31T14:49:05.998Z,6.48
2023-01-31T14:52:05.162Z,6.43
2023-01-31T14:54:31.719Z,6.57
2023-01-31T14:57:19.357Z,6.58
2023-01-31T14:59:51.956Z,6.53
2023-01-31T15:02:25.257Z,6.36
2023-01-31T15:05:01.486Z,6.59
2023-01-31T15:07:29.203Z,6.78
2023-01-31T15:09:55.970Z,6.67
2023-01-31T15:13:00.857Z,6.64
2023-01-31T15:15:39.829Z,6.52
2023-01-31T15:18:24.313Z,6.70
2023-01-31T15:20:55.669Z,6.57
2023-01-31T15:23:28.735Z,6.67
2023-01-31T15:25:58.587Z,6.59
2023-01-31T15:28:28.447Z,6.69
2023-01-31T15:30:59.970Z,6.83
2023-01-31T15:33:42.350Z,6.84
2023-01-31T15:36:26.656Z,6.92
2023-01-31T15:39:04.283Z,6.80
2023-01-31T15:41:40.189Z,6.86
2023-01-31T15:44:23.513Z,6.84
2023-01-31T15:46:55.253Z,6.80
2023-01-31T15:49:40.785Z,6.79
2023-01-31T15:52:12.021Z,6.86
2023-01-31T15:54:39.469Z,6.72
2023-01-31T15:57:15.683Z,6.77
2023-01-31T15:59:46.197Z,6.82
2023-01-31T16:02:21.320Z,6.84
2023-01-31T16:04:48.189Z,6.82
2023-01-31T16:07:21.081Z,6.89
2023-01-31T16:09:48.468Z,6.90
2023-01-31T16:12:16.141Z,6.86
2023-01-31T16:14:46.281Z,7.17
2023-01-31T16:17:13.464Z,6.92
2023-01-31T16:19:40.709Z,7.00
2023-01-31T16:22:55.073Z,6.76
2023-01-31T16:25:22.171Z,7.05
2023-01-31T16:27:49.103Z,6.86
2023-01-31T16:30:18.585Z,6.95
2023-01-31T16:32:47.971Z,6.80
2023-01-31T16:35:24.908Z,6.84
2023-01-31T16:38:00.594Z,6.90
2023-01-31T16:40:31.579Z,6.88
2023-01-31T16:43:27.833Z,6.93
2023-01-31T16:46:01.777Z,7.06
2023-01-31T16:48:34.220Z,6.93
2023-01-31T16:51:28.122Z,6.95
2023-01-31T16:54:19.087Z,7.08
2023-01-31T16:56:47.790Z,6.87
2023-01-31T16:59:33.423Z,7.07
2023-01-31T17:02:24.616Z,7.18
2023-01-31T17:04:54.541Z,7.13
2023-01-31T17:07:28.006Z,7.18
2023-01-31T17:10:00.955Z,6.97
2023-01-31T17:12:34.426Z,7.19
2023-01-31T17:15:03.499Z,7.02
2023-01-31T17:17:34.181Z,7.08
2023-01-31T17:20:00.955Z,7.29
2023-01-31T17:22:27.462Z,7.14
2023-01-31T17:24:54.037Z,7.08
2023-01-31T17:27:21.779Z,7.27
2023-01-31T17:29:49.263Z,7.18
2023-01-31T17:32:18.266Z,7.21
2023-01-31T17:34:45.852Z,7.10
2023-01-31T17:37:16.093Z,7.03
2023-01-31T17:39:43.384Z,7.17
2023-01-31T17:42:28.076Z,7.22
2023-01-31T17:44:54.718Z,7.17
2023-01-31T17:47:24.052Z,7.19
2023-01-31T17:49:50.846Z,7.14
2023-01-31T17:52:17.578Z,7.11
2023-01-31T17:54:44.223Z,7.22
2023-01-31T17:57:10.823Z,7.22
2023-01-31T17:59:37.428Z,7.32
2023-01-31T18:02:04.186Z,7.17
2023-01-31T18:04:30.826Z,7.15
2023-01-31T18:06:57.441Z,7.28
2023-01-31T18:09:25.728Z,7.29
2023-01-31T18:11:52.334Z,7.23
2023-01-31T18:14:18.895Z,7.30
2023-01-31T18:16:45.623Z,7.25
2023-01-31T18:19:12.266Z,7.19
2023-01-31T18:21:43.882Z,7.15
2023-01-31T18:24:13.914Z,7.11
2023-01-31T18:26:40.780Z,7.21
2023-01-31T18:29:07.438Z,7.14
2023-01-31T18:31:34.178Z,7.18
2023-01-31T18:34:00.979Z,7.07
2023-01-31T18:36:27.541Z,7.06
2023-01-31T18:38:54.625Z,7.16
2023-01-31T18:41:21.540Z,7.28
2023-01-31T18:43:49.091Z,6.99
2023-01-31T18:46:17.121Z,7.05
2023-01-31T18:48:44.144Z,7.10
2023-01-31T18:51:14.244Z,6.97
2023-01-31T18:53:43.969Z,6.85
2023-01-31T18:56:18.586Z,6.88
2023-01-31T18:58:46.482Z,6.82
2023-01-31T19:01:21.327Z,6.81
2023-01-31T19:03:50.205Z,6.71
2023-01-31T19:06:22.224Z,6.85
2023-01-31T19:08:53.272Z,6.76
2023-01-31T19:11:22.177Z,6.83
2023-01-31T19:13:49.341Z,6.72
2023-01-31T19:16:18.259Z,6.80
2023-01-31T19:18:44.935Z,6.67
2023-01-31T19:21:15.485Z,6.59
2023-01-31T19:23:42.423Z,6.63
2023-01-31T19:26:09.849Z,6.68
2023-01-31T19:28:37.622Z,6.60
2023-01-31T19:31:06.901Z,6.69
2023-01-31T19:33:34.638Z,6.58
2023-01-31T19:36:15.214Z,6.69
2023-01-31T19:38:42.291Z,6.67
2023-01-31T19:41:15.139Z,6.58
2023-01-31T19:43:42.436Z,6.40
2023-01-31T19:46:09.691Z,6.58
2023-01-31T19:48:36.420Z,6.47
2023-01-31T19:51:14.808Z,6.53
2023-01-31T19:53:42.050Z,6.28
2023-01-31T19:56:09.084Z,6.47
2023-01-31T19:58:36.528Z,6.41
2023-01-31T20:01:18.413Z,6.32
2023-01-31T20:03:45.967Z,6.43
2023-01-31T20:06:27.532Z,6.39
2023-01-31T20:08:59.487Z,6.37
2023-01-31T20:11:28.582Z,6.38
2023-01-31T20:13:57.301Z,6.30
2023-01-31T20:16:24.581Z,6.18
2023-01-31T20:18:51.342Z,6.16
2023-01-31T20:21:20.621Z,6.06
2023-01-31T20:23:48.705Z,6.34
2023-01-31T20:26:17.978Z,6.35
2023-01-31T20:28:44.661Z,6.26
2023-01-31T20:31:13.875Z,6.22
2023-01-31T20:33:40.957Z,6.13
2023-01-31T20:36:07.981Z,6.03
2023-01-31T20:38:36.669Z,6.06
2023-01-31T20:41:05.228Z,6.07
2023-01-31T20:43:31.833Z,6.28
2023-01-31T20:46:19.301Z,6.19
2023-01-31T20:48:46.159Z,6.11
2023-01-31T20:51:12.774Z,6.03
2023-01-31T20:53:39.534Z,6.20
2023-01-31T20:56:10.411Z,5.87
2023-01-31T20:58:39.339Z,6.09
2023-01-31T21:01:09.003Z,5.99
2023-01-31T21:03:36.007Z,5.93
2023-01-31T21:06:04.186Z,5.89
2023-01-31T21:08:37.315Z,5.82
2023-01-31T21:11:07.430Z,5.89
2023-01-31T21:13:35.266Z,5.90
2023-01-31T21:16:04.105Z,5.69
2023-01-31T21:18:33.548Z,5.68
2023-01-31T21:21:06.888Z,5.81
2023-01-31T21:23:37.693Z,5.73
2023-01-31T21:26:06.293Z,5.69
2023-01-31T21:28:33.524Z,5.64
2023-01-31T21:31:05.523Z,5.75
2023-01-31T21:33:32.312Z,5.54
2023-01-31T21:36:00.592Z,5.70
2023-01-31T21:38:27.657Z,5.87
2023-01-31T21:41:14.202Z,5.64
2023-01-31T21:43:40.961Z,5.43
2023-01-31T21:46:09.663Z,5.52
2023-01-31T21:48:36.824Z,5.52
2023-01-31T21:51:12.357Z,5.53
2023-01-31T21:53:39.445Z,5.56
2023-01-31T21:56:13.371Z,5.53
2023-01-31T21:58:41.299Z,5.34
2023-01-31T22:01:09.114Z,5.39
2023-01-31T22:03:37.726Z,5.39
2023-01-31T22:06:07.382Z,5.54
2023-01-31T22:08:34.405Z,5.49
2023-01-31T22:11:06.943Z,5.44
2023-01-31T22:13:34.891Z,5.32
2023-01-31T22:16:04.070Z,5.48
2023-01-31T22:18:31.212Z,5.60
2023-01-31T22:21:25.073Z,5.52
2023-01-31T22:23:53.906Z,5.50
2023-01-31T22:26:26.084Z,5.37
2023-01-31T22:28:55.553Z,5.27
2023-01-31T22:31:22.918Z,5.24
2023-01-31T22:33:49.987Z,5.42
2023-01-31T22:36:17.750Z,5.33
2023-01-31T22:38:45.600Z,5.35
2023-01-31T22:41:15.324Z,5.28
2023-01-31T22:43:44.545Z,5.36
2023-01-31T22:46:13.778Z,5.54
2023-01-31T22:48:40.540Z,5.38
2023-01-31T22:51:10.941Z,5.41
2023-01-31T22:53:38.484Z,5.33
2023-01-31T22:56:08.282Z,5.45
2023-01-31T22:58:34.952Z,5.37
2023-01-31T23:01:01.818Z,5.43
2023-01-31T23:03:29.345Z,5.42
2023-01-31T23:05:56.006Z,5.47
2023-01-31T23:08:22.641Z,5.51
2023-01-31T23:10:49.316Z,5.57
2023-01-31T23:13:15.895Z,5.30
2023-01-31T23:15:42.635Z,5.50
2023-01-31T23:18:10.047Z,5.58
2023-01-31T23:20:36.643Z,5.54
2023-01-31T23:23:03.293Z,5.54
2023-01-31T23:25:30.096Z,5.42
2023-01-31T23:27:57.219Z,5.52
2023-01-31T23:30:24.038Z,5.36
2023-01-31T23:32:51.753Z,5.46
2023-01-31T23:35:18.470Z,5.47
2023-01-31T23:37:45.242Z,5.44
2023-01-31T23:40:15.381Z,5.46
2023-01-31T23:42:42.056Z,5.43
2023-01-31T23:45:09.137Z,5.52
2023-01-31T23:47:35.920Z,5.48
2023-01-31T23:50:02.575Z,5.46
2023-01-31T23:52:29.121Z,5.48
2023-01-31T23:54:55.755Z,5.32
2023-01-31T23:57:22.359Z,5.29
2023-01-31T23:59:49.060Z,5.15
